Time;durP1;ratioP1;P1;durP2;ratioP2;P2;SDS_P1;SDS_P2;PMS_P1;PMS_P2;Temp;Humidity;BMP_temperature;BMP_pressure;BME280_temperature;BME280_humidity;BME280_pressure;Samples;Min_cycle;Max_cycle;Signal;HPM_P1;HPM_P2
2021/05/28 00:01:35;;;;;;;5.63;3.00;;;12.70;99.90;;;;;;5113098;28;20022;-75
2021/05/28 00:04:00;;;;;;;5.68;3.25;;;12.80;99.90;;;;;;5113217;28;20030;-75
2021/05/28 00:06:26;;;;;;;7.80;3.03;;;12.80;99.00;;;;;;5113115;28;20364;-75
2021/05/28 00:08:52;;;;;;;5.03;3.20;;;12.70;99.30;;;;;;5113094;28;20027;-75
2021/05/28 00:11:17;;;;;;;5.78;3.17;;;12.60;98.80;;;;;;5112670;28;20016;-75
2021/05/28 00:13:44;;;;;;;4.80;3.05;;;12.20;99.90;;;;;;5113120;28;20027;-75
2021/05/28 00:16:09;;;;;;;5.15;2.85;;;12.10;99.90;;;;;;5112902;28;20023;-75
2021/05/28 00:18:35;;;;;;;3.35;3.05;;;12.10;99.90;;;;;;5112986;28;20029;-75
2021/05/28 00:21:01;;;;;;;8.00;3.55;;;12.20;99.90;;;;;;5113173;28;20027;-75
2021/05/28 00:23:27;;;;;;;10.57;3.70;;;12.40;99.90;;;;;;5111625;28;20032;-75
2021/05/28 00:25:52;;;;;;;4.18;2.75;;;12.60;99.90;;;;;;5112572;28;20030;-75
2021/05/28 00:28:18;;;;;;;6.85;3.00;;;12.70;99.90;;;;;;5112655;28;20059;-75
2021/05/28 00:30:44;;;;;;;7.43;3.50;;;12.70;99.90;;;;;;5112999;28;20020;-75
2021/05/28 00:33:10;;;;;;;4.75;3.28;;;12.70;99.90;;;;;;5112759;28;20074;-75
2021/05/28 00:35:35;;;;;;;4.63;2.88;;;12.70;99.90;;;;;;5112666;28;20152;-75
2021/05/28 00:38:01;;;;;;;6.35;3.45;;;12.70;99.90;;;;;;5112778;28;20106;-74
2021/05/28 00:40:27;;;;;;;4.53;2.80;;;12.70;99.90;;;;;;5112411;28;20091;-75
2021/05/28 00:42:53;;;;;;;6.80;3.00;;;12.60;99.90;;;;;;5112692;28;20435;-75
2021/05/28 00:45:19;;;;;;;3.95;3.08;;;12.40;99.90;;;;;;5114364;28;20024;-75
2021/05/28 00:47:44;;;;;;;4.38;2.88;;;12.40;99.90;;;;;;5116689;28;20364;-75
2021/05/28 00:50:11;;;;;;;6.30;3.38;;;12.50;99.90;;;;;;5117064;28;20100;-75
2021/05/28 00:52:37;;;;;;;4.35;3.30;;;12.50;99.90;;;;;;5116877;28;20035;-74
2021/05/28 00:55:04;;;;;;;4.10;3.42;;;12.60;99.90;;;;;;5116741;28;20031;-75
2021/05/28 00:57:30;;;;;;;6.68;3.47;;;12.60;99.90;;;;;;5116608;28;20024;-75
2021/05/28 00:59:57;;;;;;;3.35;2.95;;;12.70;99.90;;;;;;5116644;28;20027;-75
2021/05/28 01:02:26;;;;;;;4.55;3.13;;;12.70;99.90;;;;;;5116597;28;20028;-74
2021/05/28 01:04:53;;;;;;;6.47;3.28;;;12.60;99.90;;;;;;5116743;28;20012;-74
2021/05/28 01:07:19;;;;;;;4.35;3.30;;;12.60;99.90;;;;;;5116439;28;20030;-75
2021/05/28 01:09:45;;;;;;;6.10;3.17;;;12.60;99.90;;;;;;5116319;28;20407;-75
2021/05/28 01:12:11;;;;;;;7.03;3.47;;;12.50;99.90;;;;;;5116339;28;20023;-75
2021/05/28 01:14:37;;;;;;;3.58;2.40;;;12.50;99.90;;;;;;5116137;28;20027;-75
2021/05/28 01:17:03;;;;;;;3.75;2.85;;;12.60;99.90;;;;;;5116366;28;20110;-75
2021/05/28 01:19:29;;;;;;;4.90;3.08;;;12.50;99.90;;;;;;5116107;28;20541;-75
2021/05/28 01:22:02;;;;;;;5.20;3.00;;;12.50;99.90;;;;;;5116536;28;20032;-75
2021/05/28 01:24:27;;;;;;;4.50;2.33;;;12.20;99.90;;;;;;5115983;28;20024;-75
2021/05/28 01:26:53;;;;;;;6.97;2.67;;;11.90;99.90;;;;;;5116121;28;20096;-75
2021/05/28 01:29:19;;;;;;;4.80;2.60;;;12.00;99.90;;;;;;5116202;28;20515;-75
2021/05/28 01:31:45;;;;;;;9.43;2.83;;;12.10;99.90;;;;;;5114504;28;20058;-74
2021/05/28 01:34:10;;;;;;;5.25;2.90;;;12.20;99.90;;;;;;5116097;28;20020;-75
2021/05/28 01:36:36;;;;;;;7.80;2.75;;;12.30;99.90;;;;;;5115873;28;20023;-75
2021/05/28 01:39:03;;;;;;;5.72;3.60;;;12.30;99.90;;;;;;5115691;28;20073;-75
2021/05/28 01:41:30;;;;;;;3.10;2.72;;;12.10;99.90;;;;;;5116088;28;20047;-75
2021/05/28 01:43:56;;;;;;;9.60;3.25;;;12.20;99.90;;;;;;5115910;28;20039;-75
2021/05/28 01:46:23;;;;;;;4.78;2.15;;;12.10;99.90;;;;;;5115780;28;20031;-74
2021/05/28 01:48:49;;;;;;;3.80;2.63;;;12.10;99.90;;;;;;5115835;28;20020;-75
2021/05/28 01:51:15;;;;;;;5.75;2.55;;;12.20;99.90;;;;;;5115687;28;20019;-74
2021/05/28 01:53:41;;;;;;;4.05;2.50;;;12.20;99.90;;;;;;5115266;28;20375;-75
2021/05/28 01:56:07;;;;;;;4.50;2.88;;;12.00;99.90;;;;;;5113753;28;20372;-75
2021/05/28 01:58:33;;;;;;;5.05;2.42;;;11.90;99.90;;;;;;5115460;28;20125;-75
2021/05/28 02:00:59;;;;;;;5.53;2.97;;;11.90;99.90;;;;;;5115586;28;20073;-75
2021/05/28 02:03:26;;;;;;;6.25;3.42;;;12.00;99.90;;;;;;5115390;28;20098;-75
2021/05/28 02:05:52;;;;;;;3.83;2.88;;;12.10;99.90;;;;;;5115577;28;20567;-75
2021/05/28 02:08:18;;;;;;;4.22;2.80;;;12.00;99.90;;;;;;5114916;28;20028;-74
2021/05/28 02:10:45;;;;;;;4.68;2.63;;;12.00;99.90;;;;;;5115116;28;20514;-75
2021/05/28 02:13:11;;;;;;;5.07;2.90;;;12.00;99.90;;;;;;5115518;28;20012;-75
2021/05/28 02:15:37;;;;;;;6.18;3.60;;;12.00;99.90;;;;;;5115155;28;20490;-75
2021/05/28 02:18:05;;;;;;;3.85;2.53;;;12.00;99.90;;;;;;5115316;28;20058;-75
2021/05/28 02:20:32;;;;;;;4.57;2.92;;;11.90;99.90;;;;;;5115223;28;20034;-75
2021/05/28 02:22:57;;;;;;;6.63;3.58;;;12.00;99.90;;;;;;5115135;28;20035;-75
2021/05/28 02:25:23;;;;;;;3.42;2.50;;;12.00;99.90;;;;;;5115135;28;20024;-75
2021/05/28 02:27:49;;;;;;;4.28;2.80;;;12.00;99.90;;;;;;5114969;28;20110;-74
2021/05/28 02:30:15;;;;;;;4.07;2.97;;;12.00;99.90;;;;;;5115018;28;20031;-75
2021/05/28 02:32:42;;;;;;;3.88;2.83;;;11.90;99.90;;;;;;5114593;28;20084;-75
2021/05/28 02:35:09;;;;;;;4.30;3.00;;;11.90;99.90;;;;;;5114877;28;20024;-75
2021/05/28 02:37:36;;;;;;;4.13;3.00;;;11.90;99.90;;;;;;5114330;28;20027;-74
2021/05/28 02:40:02;;;;;;;4.45;3.13;;;11.90;99.90;;;;;;5114816;28;20031;-75
2021/05/28 02:42:28;;;;;;;5.25;3.28;;;12.10;99.90;;;;;;5114847;28;20503;-75
2021/05/28 02:44:54;;;;;;;5.75;2.65;;;12.10;99.90;;;;;;5114675;28;20105;-75
2021/05/28 02:47:21;;;;;;;4.35;2.65;;;12.00;99.90;;;;;;5114558;28;20403;-74
2021/05/28 02:49:47;;;;;;;3.30;2.17;;;12.00;99.90;;;;;;5114351;28;20432;-75
2021/05/28 02:52:14;;;;;;;5.18;2.60;;;11.70;99.90;;;;;;5114154;28;20073;-75
2021/05/28 02:54:41;;;;;;;5.93;3.28;;;11.60;99.90;;;;;;5114471;28;20020;-75
2021/05/28 02:57:07;;;;;;;2.80;2.33;;;11.30;99.90;;;;;;5114581;28;20038;-75
2021/05/28 02:59:33;;;;;;;9.38;2.70;;;11.30;99.90;;;;;;5112987;28;20395;-75
2021/05/28 03:02:00;;;;;;;4.10;2.95;;;11.50;99.90;;;;;;5114290;28;20028;-75
2021/05/28 03:04:26;;;;;;;3.83;2.80;;;11.70;99.90;;;;;;5114341;28;20063;-75
2021/05/28 03:06:52;;;;;;;4.72;2.50;;;11.80;99.90;;;;;;5113306;27;20053;-75
2021/05/28 03:09:17;;;;;;;3.95;2.50;;;11.70;99.90;;;;;;5113922;28;20027;-75
2021/05/28 03:11:43;;;;;;;3.65;2.60;;;11.80;99.90;;;;;;5114138;28;20034;-75
2021/05/28 03:14:09;;;;;;;3.90;2.13;;;11.70;99.90;;;;;;5113894;28;20537;-75
2021/05/28 03:16:35;;;;;;;4.15;2.60;;;11.70;99.90;;;;;;5114213;27;20019;-75
2021/05/28 03:19:03;;;;;;;2.53;2.08;;;11.70;99.90;;;;;;5112618;28;20525;-74
2021/05/28 03:24:02;;;;;;;5.82;2.58;;;11.70;99.90;;;;;;5113691;28;20023;-75
2021/05/28 03:26:29;;;;;;;8.43;2.55;;;11.70;99.90;;;;;;5113890;28;20028;-74
2021/05/28 03:28:57;;;;;;;3.55;2.63;;;11.70;99.90;;;;;;5113569;27;20070;-75
2021/05/28 03:31:23;;;;;;;4.88;2.47;;;11.50;99.90;;;;;;5113876;28;20020;-74
2021/05/28 03:33:49;;;;;;;3.67;2.20;;;11.40;99.90;;;;;;5111906;28;20521;-74
2021/05/28 03:36:16;;;;;;;3.10;2.22;;;11.30;99.90;;;;;;5113623;28;20042;-75
2021/05/28 03:38:43;;;;;;;5.28;2.50;;;11.30;99.90;;;;;;5113468;28;20027;-75
2021/05/28 03:41:10;;;;;;;5.80;2.88;;;11.40;99.90;;;;;;5113639;28;20032;-75
2021/05/28 03:43:36;;;;;;;5.63;2.78;;;11.60;99.90;;;;;;5113529;28;20509;-75
2021/05/28 03:46:03;;;;;;;4.88;2.70;;;11.60;99.90;;;;;;5113410;28;20024;-74
2021/05/28 03:48:29;;;;;;;6.82;2.58;;;11.60;99.90;;;;;;5113206;28;20031;-75
2021/05/28 03:50:55;;;;;;;3.20;2.55;;;11.60;99.90;;;;;;5113224;28;20031;-75
2021/05/28 03:53:20;;;;;;;4.47;2.78;;;11.50;99.90;;;;;;5113609;28;20490;-75
2021/05/28 03:55:46;;;;;;;4.03;2.35;;;11.40;99.90;;;;;;5113354;28;20032;-75
2021/05/28 03:58:13;;;;;;;5.60;2.42;;;11.40;99.90;;;;;;5113336;28;20031;-75
2021/05/28 04:00:38;;;;;;;5.03;2.85;;;11.30;99.90;;;;;;5113614;28;20051;-75
2021/05/28 04:03:04;;;;;;;2.63;2.17;;;11.40;99.90;;;;;;5111471;28;20070;-75
2021/05/28 04:05:30;;;;;;;5.32;2.95;;;11.40;99.90;;;;;;5104353;28;20035;-75
2021/05/28 04:07:56;;;;;;;3.65;2.22;;;11.50;99.90;;;;;;5104836;28;20020;-75
2021/05/28 04:10:22;;;;;;;5.65;2.80;;;11.50;99.90;;;;;;5101283;28;20031;-74
2021/05/28 04:12:47;;;;;;;5.03;2.40;;;11.50;99.90;;;;;;5100039;28;20058;-75
2021/05/28 04:15:14;;;;;;;3.75;2.45;;;11.50;99.90;;;;;;5104371;28;20026;-75
2021/05/28 04:17:39;;;;;;;3.70;2.55;;;11.50;99.90;;;;;;5104343;28;20094;-75
2021/05/28 04:20:06;;;;;;;3.80;3.00;;;11.40;99.90;;;;;;5103265;28;20107;-75
2021/05/28 04:22:32;;;;;;;4.75;2.75;;;11.40;99.90;;;;;;5108704;28;20084;-75
2021/05/28 04:24:58;;;;;;;4.60;2.45;;;11.50;99.90;;;;;;5094272;28;20028;-75
2021/05/28 04:27:24;;;;;;;6.15;2.90;;;11.40;99.90;;;;;;5098837;28;20437;-75
2021/05/28 04:29:50;;;;;;;5.65;2.97;;;11.40;99.90;;;;;;5093074;28;20028;-75
2021/05/28 04:32:16;;;;;;;3.72;2.50;;;11.30;99.90;;;;;;5097700;28;20068;-75
2021/05/28 04:34:43;;;;;;;5.05;2.83;;;11.20;99.90;;;;;;5092845;28;20016;-75
2021/05/28 04:37:09;;;;;;;4.28;3.00;;;10.80;99.90;;;;;;5095474;28;20353;-75
2021/05/28 04:39:35;;;;;;;6.32;2.88;;;10.60;99.90;;;;;;5112706;28;20376;-75
2021/05/28 04:42:01;;;;;;;3.03;2.47;;;10.90;99.90;;;;;;5105218;28;20028;-75
2021/05/28 04:44:27;;;;;;;3.40;2.42;;;10.90;99.90;;;;;;5092216;28;20031;-75
2021/05/28 04:46:53;;;;;;;4.47;2.83;;;11.10;99.90;;;;;;5105115;28;20602;-75
2021/05/28 04:49:19;;;;;;;2.63;2.42;;;11.00;99.90;;;;;;5106165;28;20027;-75
2021/05/28 04:51:45;;;;;;;3.95;2.45;;;11.00;99.90;;;;;;5109848;28;20028;-75
2021/05/28 04:54:11;;;;;;;4.38;3.33;;;11.10;99.90;;;;;;5093479;28;20024;-75
2021/05/28 04:56:38;;;;;;;5.25;2.97;;;11.20;99.90;;;;;;5110188;28;20084;-75
2021/05/28 04:59:04;;;;;;;3.65;2.95;;;11.30;99.90;;;;;;5112581;28;20031;-75
2021/05/28 05:01:30;;;;;;;3.75;3.45;;;11.40;99.90;;;;;;5103869;28;20496;-75
2021/05/28 05:03:55;;;;;;;4.15;3.17;;;11.50;99.90;;;;;;5098007;28;20020;-75
2021/05/28 05:06:21;;;;;;;7.47;3.20;;;11.50;99.90;;;;;;5107057;28;20028;-75
2021/05/28 05:08:47;;;;;;;6.03;2.85;;;11.50;99.90;;;;;;5103675;28;20495;-76
2021/05/28 05:11:12;;;;;;;4.65;2.50;;;11.30;99.90;;;;;;5108525;28;20042;-75
2021/05/28 05:13:38;;;;;;;5.57;2.83;;;11.30;99.90;;;;;;5098461;28;20024;-75
2021/05/28 05:16:04;;;;;;;5.85;2.97;;;11.60;99.90;;;;;;5100802;28;20028;-75
2021/05/28 05:18:30;;;;;;;5.35;2.60;;;11.70;99.90;;;;;;5099947;28;20027;-75
2021/05/28 05:20:56;;;;;;;3.50;2.55;;;11.80;99.90;;;;;;5104304;28;21429;-75
2021/05/28 05:23:21;;;;;;;15.50;3.00;;;12.00;99.90;;;;;;5100446;28;20092;-74
2021/05/28 05:25:48;;;;;;;5.60;3.78;;;11.70;99.90;;;;;;5101193;28;20502;-75
2021/05/28 05:28:14;;;;;;;5.32;3.55;;;11.70;99.90;;;;;;5101224;28;20032;-75
2021/05/28 05:30:40;;;;;;;3.17;2.53;;;11.80;99.90;;;;;;5101962;28;20027;-75
2021/05/28 05:33:06;;;;;;;4.63;3.30;;;11.70;99.90;;;;;;5109312;28;20088;-75
2021/05/28 05:35:32;;;;;;;5.03;2.83;;;11.80;99.90;;;;;;5107514;28;20077;-74
2021/05/28 05:37:58;;;;;;;6.60;3.05;;;11.80;99.90;;;;;;5109838;28;20023;-75
2021/05/28 05:40:24;;;;;;;4.00;2.55;;;11.90;99.90;;;;;;5112276;28;20070;-75
2021/05/28 05:42:49;;;;;;;4.00;2.85;;;12.00;99.90;;;;;;5111118;28;20027;-75
2021/05/28 05:45:16;;;;;;;5.75;3.17;;;12.00;99.90;;;;;;5111991;28;20055;-75
2021/05/28 05:47:43;;;;;;;8.48;3.92;;;12.20;99.90;;;;;;5108181;28;20429;-75
2021/05/28 05:50:09;;;;;;;7.28;2.85;;;12.10;99.90;;;;;;5110840;28;20020;-76
2021/05/28 05:52:35;;;;;;;5.32;3.00;;;12.20;99.90;;;;;;5106858;28;20024;-75
2021/05/28 05:55:01;;;;;;;3.53;2.65;;;12.30;99.90;;;;;;5105817;28;20449;-75
2021/05/28 05:57:30;;;;;;;4.60;3.00;;;12.40;99.90;;;;;;5112088;28;20038;-76
2021/05/28 05:59:56;;;;;;;9.87;4.73;;;12.60;99.90;;;;;;5100229;28;20035;-75
2021/05/28 06:02:22;;;;;;;3.90;2.65;;;12.70;99.90;;;;;;5107964;28;20383;-75
2021/05/28 06:04:47;;;;;;;5.50;2.80;;;12.80;99.90;;;;;;5101315;28;20062;-75
2021/05/28 06:07:13;;;;;;;4.32;3.05;;;13.00;99.90;;;;;;5105788;28;20063;-75
2021/05/28 06:09:39;;;;;;;6.50;3.45;;;13.10;99.90;;;;;;5108127;27;20430;-75
2021/05/28 06:12:06;;;;;;;9.15;3.05;;;13.20;99.90;;;;;;5109706;27;20028;-75
2021/05/28 06:14:31;;;;;;;6.20;3.17;;;13.30;99.90;;;;;;5105201;28;20012;-75
2021/05/28 06:16:57;;;;;;;3.88;3.00;;;13.40;99.90;;;;;;5106332;28;20016;-75
2021/05/28 06:19:23;;;;;;;4.30;3.10;;;13.60;99.90;;;;;;5101411;28;20088;-75
2021/05/28 06:21:49;;;;;;;5.53;3.35;;;13.70;99.90;;;;;;5108832;27;20035;-76
2021/05/28 06:24:15;;;;;;;3.50;2.92;;;13.70;99.90;;;;;;5105210;28;20023;-75
2021/05/28 06:26:40;;;;;;;4.25;3.20;;;13.80;99.90;;;;;;5109842;28;20388;-75
2021/05/28 06:29:08;;;;;;;6.07;3.25;;;13.90;99.90;;;;;;5108042;28;20035;-75
2021/05/28 06:31:37;;;;;;;7.72;3.40;;;14.10;99.90;;;;;;5109326;28;20039;-75
2021/05/28 06:34:05;;;;;;;5.78;4.40;;;14.20;99.90;;;;;;5110146;28;20425;-76
2021/05/28 06:36:32;;;;;;;10.75;5.60;;;14.30;99.90;;;;;;5103634;28;20015;-75
2021/05/28 06:38:58;;;;;;;9.95;6.90;;;14.40;99.80;;;;;;5103520;28;20383;-76
2021/05/28 06:41:24;;;;;;;8.95;8.15;;;14.60;99.90;;;;;;5102639;28;20019;-75
2021/05/28 06:43:50;;;;;;;12.57;7.35;;;14.70;99.20;;;;;;5103875;28;20058;-75
2021/05/28 06:46:17;;;;;;;8.32;4.57;;;14.90;98.50;;;;;;5109666;28;20038;-76
2021/05/28 06:48:43;;;;;;;4.93;3.78;;;15.10;99.70;;;;;;5109147;28;20053;-75
2021/05/28 06:51:09;;;;;;;5.80;3.53;;;15.20;99.60;;;;;;5109026;28;20023;-75
2021/05/28 06:53:36;;;;;;;5.80;3.10;;;15.30;98.90;;;;;;5098206;28;20429;-75
2021/05/28 06:56:02;;;;;;;3.53;3.13;;;15.40;98.50;;;;;;5103074;28;20028;-75
2021/05/28 06:58:29;;;;;;;5.40;3.33;;;15.40;98.50;;;;;;5105384;28;20399;-75
2021/05/28 07:00:55;;;;;;;4.85;2.90;;;15.50;96.10;;;;;;5103630;27;20039;-75
2021/05/28 07:03:21;;;;;;;6.03;2.55;;;15.70;96.00;;;;;;5107793;27;20117;-75
2021/05/28 07:05:46;;;;;;;8.40;3.45;;;15.70;97.70;;;;;;5105904;28;20030;-76
2021/05/28 07:08:12;;;;;;;8.43;2.75;;;15.80;96.20;;;;;;5108862;28;20414;-75
2021/05/28 07:10:38;;;;;;;6.90;3.20;;;15.90;95.60;;;;;;5107538;28;20042;-75
2021/05/28 07:13:04;;;;;;;3.47;3.15;;;15.80;96.70;;;;;;5098848;27;20449;-76
2021/05/28 07:15:29;;;;;;;3.92;2.97;;;15.90;96.50;;;;;;5108220;28;20020;-75
2021/05/28 07:17:55;;;;;;;5.93;3.45;;;16.00;95.10;;;;;;5097660;28;20102;-78
2021/05/28 07:20:21;;;;;;;4.85;3.50;;;16.10;95.50;;;;;;5093672;28;20062;-77
2021/05/28 07:22:47;;;;;;;3.28;2.40;;;16.30;94.60;;;;;;5099349;28;20107;-76
2021/05/28 07:25:15;;;;;;;4.53;3.47;;;16.40;95.20;;;;;;5113991;28;20488;-77
2021/05/28 07:27:41;;;;;;;4.90;2.78;;;16.60;95.70;;;;;;5103138;28;20023;-75
2021/05/28 07:30:08;;;;;;;6.00;2.78;;;16.60;96.30;;;;;;5093381;28;20028;-76
2021/05/28 07:32:38;;;;;;;8.80;3.47;;;16.70;95.90;;;;;;5093248;28;20032;-77
2021/05/28 07:35:05;;;;;;;8.05;3.75;;;16.60;94.00;;;;;;5093260;28;20500;-77
2021/05/28 07:37:31;;;;;;;6.65;3.42;;;16.60;95.20;;;;;;5093429;28;20098;-77
2021/05/28 07:39:58;;;;;;;4.68;2.83;;;16.80;95.10;;;;;;5093268;28;20469;-77
2021/05/28 07:42:23;;;;;;;12.90;3.42;;;16.80;95.40;;;;;;5092963;28;20107;-77
2021/05/28 07:44:51;;;;;;;6.63;3.30;;;16.80;95.40;;;;;;5092790;28;20114;-77
2021/05/28 07:47:16;;;;;;;4.90;3.25;;;17.10;94.90;;;;;;5092851;28;20502;-77
2021/05/28 07:49:42;;;;;;;4.35;3.40;;;17.00;94.60;;;;;;5092843;28;20028;-77
2021/05/28 07:52:09;;;;;;;6.75;2.70;;;17.10;94.20;;;;;;5092923;28;20044;-77
2021/05/28 07:54:35;;;;;;;14.40;5.20;;;17.10;94.90;;;;;;5095885;28;20475;-77
2021/05/28 07:57:03;;;;;;;4.80;2.65;;;17.00;95.30;;;;;;5113241;28;20044;-77
2021/05/28 07:59:29;;;;;;;6.78;4.03;;;17.00;95.20;;;;;;5098620;28;20054;-77
2021/05/28 08:01:55;;;;;;;9.50;4.15;;;17.00;94.90;;;;;;5092924;28;20024;-77
2021/05/28 08:04:21;;;;;;;3.83;3.35;;;17.10;95.50;;;;;;5092992;28;20091;-77
2021/05/28 08:06:48;;;;;;;8.10;3.10;;;17.30;95.80;;;;;;5092936;28;20067;-77
2021/05/28 08:09:14;;;;;;;3.47;3.10;;;17.40;95.40;;;;;;5092192;28;20490;-77
2021/05/28 08:11:40;;;;;;;4.32;3.08;;;17.40;94.80;;;;;;5092833;28;20099;-77
2021/05/28 08:14:06;;;;;;;14.48;3.85;;;17.40;95.00;;;;;;5092527;28;20020;-77
2021/05/28 08:16:32;;;;;;;4.18;2.75;;;17.60;93.50;;;;;;5092727;28;20024;-77
2021/05/28 08:18:58;;;;;;;5.07;3.00;;;17.70;94.90;;;;;;5092801;28;20161;-77
2021/05/28 08:21:24;;;;;;;5.20;2.92;;;17.90;94.70;;;;;;5092463;28;20024;-77
2021/05/28 08:23:49;;;;;;;4.25;2.92;;;18.00;93.60;;;;;;5092442;28;20035;-77
2021/05/28 08:26:15;;;;;;;4.60;2.88;;;18.20;93.40;;;;;;5092464;28;20078;-77
2021/05/28 08:28:41;;;;;;;6.25;3.45;;;18.30;94.00;;;;;;5092458;28;20472;-77
2021/05/28 08:31:10;;;;;;;13.88;3.45;;;18.20;93.80;;;;;;5092447;28;20029;-78
2021/05/28 08:33:37;;;;;;;5.13;2.88;;;18.10;93.20;;;;;;5092335;28;20040;-77
2021/05/28 08:36:04;;;;;;;6.78;2.97;;;18.20;93.10;;;;;;5092376;28;20031;-77
2021/05/28 08:38:29;;;;;;;7.40;3.20;;;18.40;93.50;;;;;;5092231;28;20035;-77
2021/05/28 08:40:55;;;;;;;4.32;3.33;;;18.60;93.10;;;;;;5092499;28;20036;-77
2021/05/28 08:43:21;;;;;;;5.93;3.40;;;18.90;91.70;;;;;;5092205;28;20028;-77
2021/05/28 08:45:48;;;;;;;7.07;3.03;;;19.10;92.20;;;;;;5092464;28;20036;-77
2021/05/28 08:48:16;;;;;;;7.18;3.50;;;19.20;91.20;;;;;;5101765;28;20050;-77
2021/05/28 08:50:43;;;;;;;7.35;3.97;;;19.50;90.30;;;;;;5112758;28;20437;-77
2021/05/28 08:53:11;;;;;;;4.90;3.25;;;19.70;88.80;;;;;;5112264;28;20069;-77
2021/05/28 08:55:39;;;;;;;37.05;5.63;;;19.70;88.90;;;;;;5112778;28;20035;-77
2021/05/28 08:58:07;;;;;;;10.02;4.07;;;19.80;88.10;;;;;;5112693;28;20059;-77
2021/05/28 09:00:33;;;;;;;6.70;3.28;;;20.00;87.30;;;;;;5112530;28;20479;-77
2021/05/28 09:03:26;;;;;;;10.00;3.25;;;20.10;87.10;;;;;;5112703;28;20032;-77
2021/05/28 09:05:55;;;;;;;5.15;3.60;;;20.20;86.90;;;;;;5110728;28;20418;-77
2021/05/28 09:08:33;;;;;;;4.53;2.85;;;20.30;86.20;;;;;;5116162;28;20031;-77
2021/05/28 09:11:06;;;;;;;6.60;3.42;;;20.40;85.80;;;;;;5116662;28;20067;-77
2021/05/28 09:13:33;;;;;;;3.65;2.90;;;20.70;84.00;;;;;;5116609;28;20020;-77
2021/05/28 09:16:09;;;;;;;5.95;3.17;;;21.00;82.90;;;;;;5116555;28;20027;-77
2021/05/28 09:18:53;;;;;;;7.57;4.15;;;21.20;80.80;;;;;;5116594;28;20024;-77
2021/05/28 09:21:28;;;;;;;6.72;3.80;;;21.30;82.60;;;;;;5116354;28;20055;-77
2021/05/28 09:23:54;;;;;;;5.65;3.67;;;21.60;81.40;;;;;;5116167;28;20525;-78
2021/05/28 09:26:24;;;;;;;5.70;3.00;;;21.80;82.10;;;;;;5116333;28;20129;-77
2021/05/28 09:28:51;;;;;;;5.78;3.58;;;22.10;80.20;;;;;;5116169;28;20064;-77
2021/05/28 09:31:19;;;;;;;5.32;3.05;;;22.10;78.30;;;;;;5116087;28;20501;-77
2021/05/28 09:33:47;;;;;;;4.10;3.35;;;22.40;77.50;;;;;;5115949;28;20104;-77
2021/05/28 09:36:21;;;;;;;4.78;3.60;;;22.50;77.70;;;;;;5115607;28;20384;-77
2021/05/28 09:38:54;;;;;;;9.45;3.42;;;22.80;76.70;;;;;;5116195;28;20505;-77
2021/05/28 09:41:45;;;;;;;3.30;3.00;;;22.90;75.90;;;;;;5115848;28;20106;-77
2021/05/28 09:44:16;;;;;;;5.40;3.20;;;23.10;76.00;;;;;;5115893;28;20502;-77
2021/05/28 09:46:57;;;;;;;3.33;3.03;;;23.30;75.90;;;;;;5115925;28;20039;-77
2021/05/28 09:49:25;;;;;;;6.95;3.92;;;23.40;74.40;;;;;;5115411;28;20028;-77
2021/05/28 09:52:20;;;;;;;5.80;4.00;;;23.70;73.20;;;;;;5115607;28;20039;-77
2021/05/28 09:55:01;;;;;;;6.68;3.60;;;23.70;74.40;;;;;;5115823;28;20058;-77
2021/05/28 09:57:47;;;;;;;3.95;3.65;;;23.60;72.10;;;;;;5115600;28;20421;-77
2021/05/28 10:00:36;;;;;;;4.53;3.60;;;23.60;70.80;;;;;;5115618;28;20098;-77
2021/05/28 10:03:26;;;;;;;4.68;3.28;;;23.70;72.20;;;;;;5115649;28;20570;-77
2021/05/28 10:05:59;;;;;;;20.05;4.13;;;23.70;70.20;;;;;;5115736;28;20032;-77
2021/05/28 10:08:27;;;;;;;5.45;3.28;;;23.60;70.50;;;;;;5115093;28;20031;-77
2021/05/28 10:10:58;;;;;;;6.22;3.80;;;23.80;70.20;;;;;;5115615;28;20051;-77
2021/05/28 10:13:25;;;;;;;6.05;3.90;;;24.20;71.10;;;;;;5115223;28;20558;-77
2021/05/28 10:15:57;;;;;;;7.63;4.28;;;24.10;67.80;;;;;;5115353;28;20015;-77
2021/05/28 10:18:24;;;;;;;6.25;3.60;;;24.10;67.50;;;;;;5114893;28;20026;-77
2021/05/28 10:20:55;;;;;;;5.28;3.33;;;24.10;70.40;;;;;;5115232;28;20032;-77
2021/05/28 10:23:25;;;;;;;4.85;3.55;;;24.00;70.30;;;;;;5115334;28;20023;-77
2021/05/28 10:25:56;;;;;;;4.82;3.42;;;24.10;70.00;;;;;;5115319;27;20028;-77
2021/05/28 10:28:28;;;;;;;5.63;4.07;;;24.00;70.40;;;;;;5114795;28;20150;-77
2021/05/28 10:30:54;;;;;;;4.00;3.38;;;23.90;71.00;;;;;;5115186;28;20034;-77
2021/05/28 10:33:25;;;;;;;5.38;3.22;;;24.10;68.90;;;;;;5114786;28;20419;-77
2021/05/28 10:35:56;;;;;;;6.15;3.40;;;24.60;69.20;;;;;;5114760;28;20019;-77
2021/05/28 10:38:33;;;;;;;5.93;3.47;;;24.40;65.70;;;;;;5114976;28;20027;-77
2021/05/28 10:41:05;;;;;;;4.50;3.45;;;24.30;66.80;;;;;;5114894;27;20417;-77
2021/05/28 10:43:51;;;;;;;4.32;3.00;;;24.30;69.00;;;;;;5114825;28;20031;-77
2021/05/28 10:46:18;;;;;;;4.80;3.58;;;24.30;68.50;;;;;;5107355;28;20047;-77
2021/05/28 10:48:44;;;;;;;4.30;3.13;;;24.30;70.80;;;;;;5114008;28;20020;-77
2021/05/28 10:51:26;;;;;;;3.13;2.85;;;24.20;69.40;;;;;;5114766;28;20042;-77
2021/05/28 10:53:54;;;;;;;5.13;3.53;;;24.00;68.50;;;;;;5114535;28;20357;-77
2021/05/28 10:56:22;;;;;;;22.52;8.25;;;23.90;70.00;;;;;;5114537;28;20023;-77
2021/05/28 10:58:58;;;;;;;4.85;3.80;;;23.90;68.20;;;;;;5114503;28;20027;-77
2021/05/28 11:01:56;;;;;;;4.97;3.28;;;23.80;69.10;;;;;;5114366;28;20031;-77
2021/05/28 11:04:43;;;;;;;4.38;2.90;;;23.90;68.20;;;;;;5114286;28;20062;-77
2021/05/28 11:07:09;;;;;;;5.78;2.75;;;23.90;67.00;;;;;;5114150;28;20027;-77
2021/05/28 11:09:50;;;;;;;3.40;3.00;;;23.80;69.10;;;;;;5114331;28;20023;-77
2021/05/28 11:12:40;;;;;;;4.68;2.95;;;23.70;69.50;;;;;;5114240;28;20058;-77
2021/05/28 11:15:10;;;;;;;8.20;3.47;;;23.80;68.70;;;;;;5114409;28;20034;-77
2021/05/28 11:18:05;;;;;;;6.75;3.20;;;23.80;69.30;;;;;;5113640;28;20031;-77
2021/05/28 11:20:40;;;;;;;6.05;3.08;;;23.70;70.70;;;;;;5109884;28;20051;-78
2021/05/28 11:23:23;;;;;;;5.88;3.30;;;23.60;69.50;;;;;;5114209;28;20027;-77
2021/05/28 11:25:51;;;;;;;5.40;3.33;;;23.40;70.00;;;;;;5113942;28;20038;-77
2021/05/28 11:28:18;;;;;;;3.38;2.75;;;23.30;69.60;;;;;;5113004;28;20057;-77
2021/05/28 11:30:55;;;;;;;3.65;2.75;;;23.30;69.40;;;;;;5113673;28;20561;-77
2021/05/28 11:33:33;;;;;;;4.35;3.38;;;23.50;69.50;;;;;;5113233;28;20399;-77
2021/05/28 11:36:00;;;;;;;6.55;3.38;;;23.70;69.30;;;;;;5113633;28;20024;-77
2021/05/28 11:38:33;;;;;;;5.75;3.53;;;24.00;69.60;;;;;;5113877;28;20028;-77
2021/05/28 11:40:59;;;;;;;4.30;3.42;;;23.90;69.10;;;;;;5113592;28;20023;-77
2021/05/28 11:43:33;;;;;;;3.08;2.72;;;24.10;69.90;;;;;;5113592;28;20030;-77
2021/05/28 11:45:59;;;;;;;3.38;2.78;;;23.90;69.10;;;;;;5113567;28;20031;-77
2021/05/28 11:48:27;;;;;;;3.92;2.78;;;23.80;70.40;;;;;;5113075;28;20440;-77
2021/05/28 11:50:55;;;;;;;5.25;3.30;;;23.80;70.60;;;;;;5113383;28;20442;-77
2021/05/28 11:53:22;;;;;;;4.00;2.50;;;24.00;70.60;;;;;;5113570;28;20055;-77
2021/05/28 11:55:53;;;;;;;6.15;3.67;;;24.00;69.00;;;;;;5113353;28;20024;-77
2021/05/28 11:58:24;;;;;;;3.70;2.97;;;23.90;69.10;;;;;;5113349;28;20054;-77
2021/05/28 12:00:52;;;;;;;3.30;2.72;;;24.10;70.40;;;;;;5113014;28;20057;-77
2021/05/28 12:03:18;;;;;;;4.40;2.80;;;24.20;68.30;;;;;;5113047;28;20019;-77
2021/05/28 12:05:46;;;;;;;10.13;3.75;;;24.20;67.30;;;;;;5113212;27;20035;-77
2021/05/28 12:08:11;;;;;;;4.97;2.80;;;24.20;69.40;;;;;;5113025;28;20030;-77
2021/05/28 12:10:39;;;;;;;5.00;3.20;;;24.00;68.90;;;;;;5112973;28;20023;-77
2021/05/28 12:13:07;;;;;;;7.10;3.08;;;24.10;67.80;;;;;;5113285;28;20011;-77
2021/05/28 12:15:42;;;;;;;3.38;2.78;;;24.10;67.80;;;;;;5113002;28;20107;-77
2021/05/28 12:18:20;;;;;;;4.53;3.10;;;24.10;69.60;;;;;;5113003;28;20023;-77
2021/05/28 12:20:49;;;;;;;3.75;2.97;;;24.00;69.20;;;;;;5112724;28;20032;-77
2021/05/28 12:23:20;;;;;;;3.80;3.08;;;24.10;70.80;;;;;;5113217;28;20055;-76
2021/05/28 12:25:55;;;;;;;4.03;2.78;;;23.90;70.70;;;;;;5113141;28;20028;-77
2021/05/28 12:28:24;;;;;;;4.80;2.38;;;24.00;68.80;;;;;;5112833;28;20032;-77
2021/05/28 12:31:11;;;;;;;4.68;2.90;;;24.10;68.90;;;;;;5112468;28;20125;-77
2021/05/28 12:33:39;;;;;;;3.10;2.80;;;24.00;67.60;;;;;;5112662;28;20089;-77
2021/05/28 12:36:08;;;;;;;4.28;2.70;;;23.90;70.40;;;;;;5112776;28;20019;-76
2021/05/28 12:38:42;;;;;;;3.55;2.78;;;23.80;69.80;;;;;;5112874;28;20028;-77
2021/05/28 12:41:11;;;;;;;4.63;2.95;;;23.90;70.00;;;;;;5118550;28;20039;-77
2021/05/28 12:43:41;;;;;;;4.78;3.15;;;23.90;69.60;;;;;;5119512;27;20507;-77
2021/05/28 12:46:26;;;;;;;4.72;3.20;;;23.80;68.90;;;;;;5119591;27;20039;-77
2021/05/28 12:48:52;;;;;;;4.53;3.45;;;23.80;68.40;;;;;;5119268;27;20028;-77
2021/05/28 12:51:29;;;;;;;5.93;3.35;;;24.00;67.80;;;;;;5119592;27;20038;-77
2021/05/28 12:53:56;;;;;;;5.40;2.92;;;24.20;70.10;;;;;;5119302;27;20016;-77